Ukkel, België

6:30 AM CEST op 03 september 2014 (GMT +0200)
Anderlecht | Change Station
CLOSE
Current Station
Persoonlijk weerstation
Location: Anderlecht, BRUXELLES
Geometrische hoogte: 69 ft
Nabije weerstations

Hoogte 69 ft 50.84 °N, 4.33 °E | Updated 10 minutes ago

Fog
Mist
59.9 °F
Voelt als 59.9 °F
N
-
Wind Variabel Wind van noord

Vandaag
Hoog -- | Laag -- °F
--% Kans op neerslag
Gisteren
Hoog -- | Laag -- °F
Precip. -- inches
6:59 AM 8:23 PM
Eerste kwartier, 58% visible
Druk 30.21 inches
Zicht 0.1 mijlen
Wolken Geheel bewolkt 100 ft
Dauwpunt 56 °F
Vochtigheid 90%
Neerslag -999.00 inches
Dikte sneeuw Niet beschikbaar.
UV 0 van de 12
Pollen Niet beschikbaar.
Luchtkwaliteit Niet beschikbaar.
Flu Activity Niet beschikbaar.
METAR EBBR 030420Z VRB01KT 0150 R25L/0375N R25R/0250N R01/0300V0450U FG OVC001 13/12 Q1023 NOSIG

More Conditions Fewer Conditions

Druk 30.21 inches
Zicht 0.1 mijlen
Wolken Geheel bewolkt 100 ft
Dauwpunt 56 °F
Vochtigheid 90%
Neerslag -999.00 inches
Dikte sneeuw Niet beschikbaar.
UV 0 van de 12
Pollen Niet beschikbaar.
Luchtkwaliteit Niet beschikbaar.
Flu Activity Niet beschikbaar.
METAR EBBR 030420Z VRB01KT 0150 R25L/0375N R25R/0250N R01/0300V0450U FG OVC001 13/12 Q1023 NOSIG

More Conditions Fewer Conditions

10-Day Weather Forecast

Almanac

Astronomie

Sep. 03, 2014 Opkomst Ondergang
Werkelijke tijd 6:59 AM CEST 8:23 PM CEST
Burgerlijke schemering 6:24 AM CEST 8:57 PM CEST
Nautische schemering 5:43 AM CEST 9:39 PM CEST
Astronomische schemering 4:57 AM CEST 10:24 PM CEST
Maan 4:11 PM CEST 12:19 AM CEST
Golflengte van het zichtbare licht 14h 32m
Daglengte
13h 24m
Tomorrow will be 3m 44s shorter.
Eerste kwartier, 58% of the Moon is Illuminated
Vandaag
Eerste kwartier
sep 8
Volle maan
sep 15
Laatste kwartier
sep 24
Nieuw
oktober 1
Eerste kwartier

Extremen gisteren

Country Highs Country Lows

Community

WunderPhotos

Upload Photos

1,749,870 foto’s ge-upload!

Nearby

Luchtkwaliteit

Not available.

Dikte sneeuw

Not available.

Aardbevingen

Stad Distance Mag. Time & Date
No recent earthquake activity has been reported nearby.
Minimum magnitude displayed is 2.5.

Watertemperatuur langs de kust

Plaats Temperatuur
Geen meldingen van stations

Nabije weerstations